createdAt,value
2022-11-28T00:02:22.384Z,25.73
2022-11-28T00:04:52.875Z,26.33
2022-11-28T00:07:20.772Z,26.97
2022-11-28T00:09:48.625Z,24.93
2022-11-28T00:12:16.315Z,23.70
2022-11-28T00:14:45.335Z,23.90
2022-11-28T00:17:13.002Z,21.93
2022-11-28T00:19:40.639Z,22.10
2022-11-28T00:22:08.384Z,22.67
2022-11-28T00:24:36.116Z,24.97
2022-11-28T00:27:03.759Z,22.33
2022-11-28T00:29:31.479Z,21.63
2022-11-28T00:32:00.573Z,25.33
2022-11-28T00:34:28.235Z,24.97
2022-11-28T00:36:55.866Z,23.43
2022-11-28T00:39:23.811Z,22.60
2022-11-28T00:41:51.488Z,22.87
2022-11-28T00:44:19.197Z,22.57
2022-11-28T00:46:46.999Z,27.23
2022-11-28T00:49:16.016Z,24.90
2022-11-28T00:51:43.721Z,24.83
2022-11-28T00:54:11.591Z,21.47
2022-11-28T00:56:40.622Z,24.33
2022-11-28T00:59:08.436Z,23.63
2022-11-28T01:01:37.983Z,21.90
2022-11-28T01:04:09.336Z,22.80
2022-11-28T01:06:40.788Z,23.10
2022-11-28T01:09:11.420Z,22.23
2022-11-28T01:11:40.005Z,21.00
2022-11-28T01:14:07.954Z,22.37
2022-11-28T01:16:35.692Z,23.63
2022-11-28T01:19:03.479Z,22.90
2022-11-28T01:21:31.110Z,20.77
2022-11-28T01:24:00.239Z,25.20
2022-11-28T01:26:30.627Z,18.70
2022-11-28T01:28:59.745Z,21.40
2022-11-28T01:31:29.785Z,18.27
2022-11-28T01:33:57.949Z,20.97
2022-11-28T01:36:26.991Z,22.90
2022-11-28T01:38:54.943Z,23.33
2022-11-28T01:41:26.753Z,21.07
2022-11-28T01:44:06.585Z,22.97
2022-11-28T01:46:35.408Z,22.97
2022-11-28T01:49:11.368Z,20.57
2022-11-28T01:51:41.921Z,22.40
2022-11-28T01:54:09.891Z,21.47
2022-11-28T01:56:47.021Z,22.00
2022-11-28T01:59:16.775Z,23.77
2022-11-28T02:01:45.631Z,23.03
2022-11-28T02:04:14.721Z,23.37
2022-11-28T02:06:43.583Z,24.53
2022-11-28T02:09:12.720Z,21.60
2022-11-28T02:12:07.337Z,24.90
2022-11-28T02:14:53.999Z,23.03
2022-11-28T02:17:33.554Z,22.70
2022-11-28T02:20:25.339Z,20.50
2022-11-28T02:23:03.227Z,22.00
2022-11-28T02:26:03.660Z,20.80
2022-11-28T02:29:19.747Z,19.07
2022-11-28T02:32:09.804Z,20.50
2022-11-28T02:34:47.202Z,19.73
2022-11-28T02:37:23.210Z,22.63
2022-11-28T02:40:02.017Z,20.43
2022-11-28T02:42:39.562Z,23.00
2022-11-28T02:45:13.174Z,24.63
2022-11-28T02:47:46.381Z,20.97
2022-11-28T02:50:20.036Z,21.47
2022-11-28T02:52:51.943Z,23.27
2022-11-28T02:55:20.219Z,24.47
2022-11-28T02:57:49.897Z,22.87
2022-11-28T03:00:29.934Z,22.87
2022-11-28T03:03:42.962Z,24.43
2022-11-28T03:06:20.878Z,22.27
2022-11-28T03:09:03.585Z,24.33
2022-11-28T03:11:47.437Z,28.73
2022-11-28T03:14:27.282Z,21.30
2022-11-28T03:17:03.156Z,23.27
2022-11-28T03:19:35.768Z,23.53
2022-11-28T03:22:11.201Z,25.63
2022-11-28T03:24:45.598Z,24.03
2022-11-28T03:27:18.789Z,23.77
2022-11-28T03:29:50.556Z,22.73
2022-11-28T03:32:23.953Z,20.77
2022-11-28T03:34:58.413Z,21.20
2022-11-28T03:37:30.865Z,24.07
2022-11-28T03:40:04.333Z,23.03
2022-11-28T03:42:37.265Z,20.93
2022-11-28T03:45:11.203Z,21.93
2022-11-28T03:47:45.517Z,24.60
2022-11-28T03:50:18.813Z,20.90
2022-11-28T03:52:51.392Z,25.07
2022-11-28T03:55:22.992Z,22.17
2022-11-28T03:57:59.066Z,23.20
2022-11-28T04:00:27.357Z,25.43
2022-11-28T04:03:02.874Z,24.07
2022-11-28T04:05:38.259Z,21.83
2022-11-28T04:08:15.042Z,23.47
2022-11-28T04:10:46.481Z,25.27
2022-11-28T04:13:20.027Z,22.90
2022-11-28T04:15:55.205Z,25.13
2022-11-28T04:18:27.839Z,23.73
2022-11-28T04:21:01.005Z,18.83
2022-11-28T04:23:31.248Z,23.67
2022-11-28T04:26:04.064Z,19.77
2022-11-28T04:28:36.142Z,19.03
2022-11-28T04:31:06.860Z,19.70
2022-11-28T04:33:40.729Z,18.93
2022-11-28T04:36:13.118Z,22.47
2022-11-28T04:38:43.375Z,23.90
2022-11-28T04:41:16.141Z,19.30
2022-11-28T04:43:48.370Z,21.53
2022-11-28T04:46:20.019Z,23.20
2022-11-28T04:48:47.758Z,21.73
2022-11-28T04:51:21.792Z,20.73
2022-11-28T04:53:55.276Z,23.70
2022-11-28T04:56:29.329Z,21.03
2022-11-28T04:58:57.884Z,22.83
2022-11-28T05:01:28.840Z,24.10
2022-11-28T05:03:57.278Z,20.93
2022-11-28T05:06:30.866Z,22.10
2022-11-28T05:08:59.049Z,21.03
2022-11-28T05:11:27.740Z,23.47
2022-11-28T05:13:56.504Z,21.37
2022-11-28T05:16:24.414Z,24.07
2022-11-28T05:18:52.193Z,24.47
2022-11-28T05:21:19.836Z,26.37
2022-11-28T05:23:49.208Z,25.30
2022-11-28T05:26:19.132Z,23.57
2022-11-28T05:28:47.425Z,27.43
2022-11-28T05:31:15.499Z,23.27
2022-11-28T05:33:43.217Z,27.57
2022-11-28T05:36:13.750Z,25.03
2022-11-28T05:38:41.878Z,27.27
2022-11-28T05:41:11.508Z,27.67
2022-11-28T05:43:39.178Z,25.10
2022-11-28T05:46:07.371Z,26.13
2022-11-28T05:48:35.039Z,26.77
2022-11-28T05:51:05.423Z,27.23
2022-11-28T05:53:33.131Z,23.93
2022-11-28T05:56:01.206Z,27.53
2022-11-28T05:58:30.241Z,26.60
2022-11-28T06:00:58.527Z,23.60
2022-11-28T06:03:26.178Z,23.50
2022-11-28T06:05:53.865Z,25.47
2022-11-28T06:08:21.596Z,26.27
2022-11-28T06:10:58.068Z,22.03
2022-11-28T06:13:25.917Z,26.90
2022-11-28T06:15:54.911Z,23.33
2022-11-28T06:18:23.655Z,26.47
2022-11-28T06:20:51.345Z,23.03
2022-11-28T06:23:19.092Z,21.63
2022-11-28T06:25:46.776Z,21.70
2022-11-28T06:28:14.500Z,19.77
2022-11-28T06:30:44.486Z,21.03
2022-11-28T06:33:13.528Z,22.77
2022-11-28T06:35:41.406Z,24.30
2022-11-28T06:38:14.079Z,23.20
2022-11-28T06:40:42.173Z,21.13
2022-11-28T06:43:10.165Z,20.83
2022-11-28T06:45:37.953Z,21.47
2022-11-28T06:48:05.896Z,20.67
2022-11-28T06:50:34.995Z,22.20
2022-11-28T06:53:05.031Z,20.40
2022-11-28T06:55:32.729Z,21.00
2022-11-28T06:58:00.567Z,20.60
2022-11-28T07:00:31.080Z,24.13
2022-11-28T07:02:59.206Z,22.53
2022-11-28T07:05:27.840Z,20.73
2022-11-28T07:07:56.944Z,23.43
2022-11-28T07:10:25.622Z,21.00
2022-11-28T07:12:55.518Z,25.87
2022-11-28T07:15:23.665Z,24.43
2022-11-28T07:17:51.536Z,24.73
2022-11-28T07:20:19.302Z,24.00
2022-11-28T07:22:48.994Z,21.50
2022-11-28T07:25:18.187Z,23.63
2022-11-28T07:27:45.835Z,23.77
2022-11-28T07:30:14.001Z,23.30
2022-11-28T07:32:41.909Z,23.70
2022-11-28T07:35:10.011Z,22.03
2022-11-28T07:37:37.682Z,23.33
2022-11-28T07:40:06.531Z,21.37
2022-11-28T07:42:35.623Z,22.20
2022-11-28T07:45:03.313Z,22.30
2022-11-28T07:47:31.101Z,24.03
2022-11-28T07:49:58.874Z,23.97
2022-11-28T07:52:26.584Z,21.80
2022-11-28T07:54:54.276Z,22.53
2022-11-28T07:57:21.966Z,23.80
2022-11-28T07:59:51.145Z,23.73
2022-11-28T08:02:18.881Z,23.63
2022-11-28T08:04:50.626Z,24.20
2022-11-28T08:07:21.755Z,23.13
2022-11-28T08:09:49.467Z,18.53
2022-11-28T08:12:17.157Z,19.97
2022-11-28T08:14:45.231Z,23.23
2022-11-28T08:17:14.432Z,20.17
2022-11-28T08:19:42.170Z,21.23
2022-11-28T08:22:09.819Z,18.60
2022-11-28T08:24:37.535Z,22.83
2022-11-28T08:27:05.221Z,20.57
2022-11-28T08:29:32.891Z,24.00
2022-11-28T08:32:00.530Z,19.13
2022-11-28T08:34:29.587Z,23.40
2022-11-28T08:36:57.187Z,18.83
2022-11-28T08:39:25.648Z,21.77
2022-11-28T08:41:54.183Z,18.87
2022-11-28T08:44:21.904Z,24.03
2022-11-28T08:46:49.724Z,22.87
2022-11-28T08:49:17.404Z,22.20
2022-11-28T08:51:46.639Z,24.77
2022-11-28T08:54:14.500Z,20.60
2022-11-28T08:56:42.178Z,21.30
2022-11-28T08:59:10.687Z,21.63
2022-11-28T09:01:39.577Z,21.90
2022-11-28T09:04:07.444Z,19.87
2022-11-28T09:06:36.649Z,24.90
2022-11-28T09:09:05.623Z,20.80
2022-11-28T09:11:33.848Z,23.57
2022-11-28T09:14:01.640Z,21.70
2022-11-28T09:16:29.515Z,23.43
2022-11-28T09:18:59.279Z,19.67
2022-11-28T09:21:27.581Z,23.97
2022-11-28T09:23:56.815Z,19.50
2022-11-28T09:26:26.549Z,21.83
2022-11-28T09:28:54.552Z,19.70
2022-11-28T09:31:22.979Z,17.17
2022-11-28T09:33:50.688Z,21.27
2022-11-28T09:36:20.383Z,20.57
2022-11-28T09:38:48.339Z,18.63
2022-11-28T09:41:43.339Z,20.00
2022-11-28T09:44:19.541Z,20.53
2022-11-28T09:46:49.122Z,19.10
2022-11-28T09:49:27.457Z,18.80
2022-11-28T09:51:59.661Z,19.93
2022-11-28T09:54:38.128Z,19.13
2022-11-28T09:57:11.840Z,20.20
2022-11-28T09:59:39.585Z,17.97
2022-11-28T10:02:23.596Z,19.03
2022-11-28T10:05:01.466Z,18.63
2022-11-28T10:07:40.162Z,19.60
2022-11-28T10:10:20.703Z,21.23
2022-11-28T10:12:57.575Z,18.53
2022-11-28T10:15:40.987Z,18.87
2022-11-28T10:18:21.943Z,20.00
2022-11-28T10:20:55.683Z,17.20
2022-11-28T10:23:27.091Z,20.83
2022-11-28T10:25:58.303Z,18.00
2022-11-28T10:28:31.480Z,15.90
2022-11-28T10:31:05.536Z,18.10
2022-11-28T10:33:40.649Z,16.33
2022-11-28T10:36:18.769Z,20.27
2022-11-28T10:38:46.536Z,19.23
2022-11-28T10:41:19.692Z,18.33
2022-11-28T10:43:56.871Z,19.37
2022-11-28T10:46:39.477Z,20.43
2022-11-28T10:49:22.301Z,19.30
2022-11-28T10:52:01.129Z,20.90
2022-11-28T10:54:45.941Z,17.73
2022-11-28T10:57:21.179Z,18.13
2022-11-28T11:00:03.083Z,17.07
2022-11-28T11:02:37.636Z,17.57
2022-11-28T11:05:06.677Z,18.37
2022-11-28T11:07:35.369Z,18.67
2022-11-28T11:10:15.379Z,18.27
2022-11-28T11:12:44.697Z,20.93
2022-11-28T11:15:24.545Z,20.57
2022-11-28T11:17:52.673Z,21.90
2022-11-28T11:20:36.983Z,20.30
2022-11-28T11:23:14.009Z,25.23
2022-11-28T11:25:50.683Z,21.83
2022-11-28T11:28:45.024Z,20.97
2022-11-28T11:31:21.827Z,17.47
2022-11-28T11:33:53.288Z,16.10
2022-11-28T11:36:24.739Z,24.13
2022-11-28T11:38:52.424Z,18.53
2022-11-28T11:41:28.513Z,19.27
2022-11-28T11:43:56.679Z,19.73
2022-11-28T11:46:25.842Z,18.37
2022-11-28T11:48:58.064Z,18.20
2022-11-28T11:51:28.278Z,19.83
2022-11-28T11:54:03.541Z,19.43
2022-11-28T11:56:36.463Z,18.57
2022-11-28T11:59:11.686Z,17.53
2022-11-28T12:01:43.412Z,19.87
2022-11-28T12:04:43.696Z,20.33
2022-11-28T12:07:19.041Z,17.63
2022-11-28T12:09:50.355Z,21.30
2022-11-28T12:12:22.579Z,19.27
2022-11-28T12:14:51.449Z,21.20
2022-11-28T12:17:48.900Z,22.63
2022-11-28T12:20:40.874Z,20.07
2022-11-28T12:23:22.459Z,19.77
2022-11-28T12:25:55.457Z,23.77
2022-11-28T12:28:38.723Z,22.30
2022-11-28T12:31:13.615Z,20.03
2022-11-28T12:33:55.037Z,19.03
2022-11-28T12:36:30.175Z,19.00
2022-11-28T12:39:13.626Z,21.13
2022-11-28T12:42:06.157Z,20.20
2022-11-28T12:44:54.585Z,20.90
2022-11-28T12:47:36.201Z,19.87
2022-11-28T12:50:18.921Z,18.90
2022-11-28T12:52:53.748Z,21.67
2022-11-28T12:55:33.433Z,20.07
2022-11-28T12:58:07.866Z,21.03
2022-11-28T13:00:47.583Z,17.63
2022-11-28T13:03:30.851Z,19.53
2022-11-28T13:06:11.644Z,24.80
2022-11-28T13:08:58.233Z,20.13
2022-11-28T13:11:40.592Z,21.97
2022-11-28T13:14:15.987Z,20.80
2022-11-28T13:16:49.079Z,18.70
2022-11-28T13:19:35.712Z,20.97
2022-11-28T13:22:14.764Z,22.40
2022-11-28T13:24:49.453Z,19.93
2022-11-28T13:27:25.592Z,21.47
2022-11-28T13:30:02.400Z,20.40
2022-11-28T13:32:36.987Z,21.53
2022-11-28T13:35:05.581Z,22.67
2022-11-28T13:40:36.023Z,24.33
2022-11-28T13:43:11.878Z,19.83
2022-11-28T13:45:43.455Z,20.67
2022-11-28T13:51:36.418Z,26.07
2022-11-28T13:54:48.675Z,20.77
2022-11-28T13:57:29.290Z,21.47
2022-11-28T14:00:01.509Z,21.80
2022-11-28T14:02:42.180Z,24.17
2022-11-28T14:05:29.989Z,22.30
2022-11-28T14:07:59.075Z,20.77
2022-11-28T14:10:39.890Z,21.47
2022-11-28T14:13:39.152Z,20.77
2022-11-28T14:16:22.900Z,24.10
2022-11-28T14:19:17.794Z,21.13
2022-11-28T14:21:55.594Z,21.03
2022-11-28T14:24:37.600Z,21.67
2022-11-28T14:27:07.053Z,22.93
2022-11-28T14:29:41.017Z,25.63
2022-11-28T14:32:30.065Z,20.83
2022-11-28T14:34:58.649Z,22.63
2022-11-28T14:37:48.749Z,24.73
2022-11-28T14:41:06.787Z,23.17
2022-11-28T14:43:36.818Z,22.57
2022-11-28T14:46:31.883Z,22.90
2022-11-28T14:49:21.386Z,23.67
2022-11-28T14:52:38.529Z,23.33
2022-11-28T14:55:19.424Z,23.47
2022-11-28T14:57:59.068Z,24.00
2022-11-28T15:00:29.727Z,23.70
2022-11-28T15:03:14.917Z,24.57
2022-11-28T15:05:46.587Z,23.27
2022-11-28T15:08:45.459Z,27.00
2022-11-28T15:11:36.912Z,29.73
2022-11-28T15:14:21.768Z,25.50
2022-11-28T15:16:53.138Z,23.40
2022-11-28T15:19:26.393Z,28.47
2022-11-28T15:21:55.700Z,25.07
2022-11-28T15:24:29.665Z,24.30
2022-11-28T15:26:59.616Z,24.80
2022-11-28T15:29:29.203Z,24.37
2022-11-28T15:31:58.922Z,25.90
2022-11-28T15:34:30.338Z,23.10
2022-11-28T15:37:00.637Z,23.37
2022-11-28T15:39:34.774Z,24.37
2022-11-28T15:42:06.193Z,25.00
2022-11-28T15:44:34.195Z,24.73
2022-11-28T15:47:02.177Z,27.00
2022-11-28T15:49:33.743Z,23.97
2022-11-28T15:52:03.044Z,25.37
2022-11-28T15:54:37.525Z,28.17
2022-11-28T15:57:06.699Z,25.70
2022-11-28T15:59:34.997Z,23.80
2022-11-28T16:02:12.823Z,24.10
2022-11-28T16:04:42.937Z,27.93
2022-11-28T16:07:14.925Z,27.67
2022-11-28T16:09:54.517Z,24.87
2022-11-28T16:12:22.634Z,26.53
2022-11-28T16:14:53.224Z,24.43
2022-11-28T16:17:29.058Z,25.70
2022-11-28T16:19:59.246Z,23.67
2022-11-28T16:22:34.232Z,27.77
2022-11-28T16:25:14.699Z,30.30
2022-11-28T16:27:45.556Z,26.20
2022-11-28T16:30:33.351Z,27.87
2022-11-28T16:33:01.131Z,31.10
2022-11-28T16:35:34.236Z,29.17
2022-11-28T16:38:07.409Z,26.57
2022-11-28T16:40:35.179Z,30.03
2022-11-28T16:43:04.896Z,28.57
2022-11-28T16:45:34.137Z,29.80
2022-11-28T16:48:08.647Z,26.30
2022-11-28T16:50:38.432Z,30.57
2022-11-28T16:53:06.683Z,29.93
2022-11-28T16:55:46.063Z,32.00
2022-11-28T16:58:19.647Z,29.90
2022-11-28T17:01:03.580Z,27.97
2022-11-28T17:03:49.331Z,29.27
2022-11-28T17:06:22.074Z,31.47
2022-11-28T17:08:50.018Z,30.03
2022-11-28T17:11:21.279Z,29.47
2022-11-28T17:13:48.996Z,28.83
2022-11-28T17:16:20.241Z,29.93
2022-11-28T17:18:48.336Z,31.30
2022-11-28T17:21:18.145Z,31.00
2022-11-28T17:23:47.248Z,31.67
2022-11-28T17:26:14.904Z,31.77
2022-11-28T17:28:42.662Z,32.40
2022-11-28T17:31:13.617Z,31.80
2022-11-28T17:33:44.631Z,29.80
2022-11-28T17:36:13.324Z,32.77
2022-11-28T17:38:41.007Z,32.63
2022-11-28T17:41:13.381Z,28.93
2022-11-28T17:43:41.458Z,34.00
2022-11-28T17:46:09.551Z,32.73
2022-11-28T17:48:37.225Z,34.70
2022-11-28T17:51:06.096Z,34.37
2022-11-28T17:53:33.848Z,32.50
2022-11-28T17:56:01.586Z,34.17
2022-11-28T17:58:30.929Z,32.70
2022-11-28T18:01:00.722Z,30.90
2022-11-28T18:03:28.844Z,31.60
2022-11-28T18:05:56.586Z,31.30
2022-11-28T18:08:24.303Z,32.40
2022-11-28T18:10:51.961Z,33.87
2022-11-28T18:13:19.660Z,33.70
2022-11-28T18:15:49.073Z,34.60
2022-11-28T18:18:16.822Z,33.60
2022-11-28T18:20:44.530Z,32.17
2022-11-28T18:23:12.517Z,32.87
2022-11-28T18:25:42.676Z,33.17
2022-11-28T18:28:13.297Z,28.67
2022-11-28T18:30:47.082Z,30.93
2022-11-28T18:33:16.597Z,30.97
2022-11-28T18:35:44.273Z,31.87
2022-11-28T18:38:12.662Z,32.20
2022-11-28T18:40:40.392Z,29.53
2022-11-28T18:43:08.090Z,30.10
2022-11-28T18:45:36.229Z,28.90
2022-11-28T18:48:04.033Z,30.17
2022-11-28T18:50:33.108Z,31.43
2022-11-28T18:53:01.999Z,29.03
2022-11-28T18:55:29.712Z,30.50
2022-11-28T18:57:57.345Z,32.53
2022-11-28T19:00:25.584Z,32.13
2022-11-28T19:02:53.265Z,29.07
2022-11-28T19:05:20.925Z,31.47
2022-11-28T19:07:50.050Z,33.97
2022-11-28T19:10:20.572Z,29.63
2022-11-28T19:12:48.734Z,27.70
2022-11-28T19:15:16.690Z,33.53
2022-11-28T19:17:44.383Z,33.03
2022-11-28T19:20:13.347Z,33.03
2022-11-28T19:22:41.137Z,30.73
2022-11-28T19:25:10.970Z,31.27
2022-11-28T19:27:38.903Z,29.13
2022-11-28T19:30:08.016Z,29.97
2022-11-28T19:32:36.531Z,30.27
2022-11-28T19:35:04.434Z,29.83
2022-11-28T19:37:32.290Z,26.47
2022-11-28T19:40:02.846Z,30.90
2022-11-28T19:42:32.319Z,30.40
2022-11-28T19:45:00.211Z,29.43
2022-11-28T19:47:28.107Z,31.57
2022-11-28T19:49:55.926Z,28.70
2022-11-28T19:52:23.870Z,28.50
2022-11-28T19:54:51.693Z,30.50
2022-11-28T19:57:20.801Z,28.20
2022-11-28T19:59:49.904Z,28.07
2022-11-28T20:02:17.936Z,32.00
2022-11-28T20:04:45.739Z,27.87
2022-11-28T20:07:13.878Z,29.33
2022-11-28T20:09:41.823Z,27.73
2022-11-28T20:12:09.842Z,28.47
2022-11-28T20:14:37.835Z,26.87
2022-11-28T20:17:07.231Z,28.00
2022-11-28T20:19:35.110Z,28.20
2022-11-28T20:22:02.985Z,27.93
2022-11-28T20:24:30.818Z,24.50
2022-11-28T20:26:58.513Z,24.03
2022-11-28T20:29:27.924Z,27.20
2022-11-28T20:31:57.347Z,26.63
2022-11-28T20:34:26.893Z,27.83
2022-11-28T20:36:54.923Z,27.47
2022-11-28T20:39:23.779Z,27.80
2022-11-28T20:41:54.339Z,26.37
2022-11-28T20:44:22.457Z,25.60
2022-11-28T20:46:50.831Z,28.57
2022-11-28T20:49:35.499Z,25.47
2022-11-28T20:52:03.706Z,28.47
2022-11-28T20:54:31.691Z,27.23
2022-11-28T20:59:48.086Z,26.07
2022-11-28T21:02:15.836Z,28.77
2022-11-28T21:04:45.580Z,28.03
2022-11-28T21:07:13.387Z,26.33
2022-11-28T21:09:41.106Z,26.47
2022-11-28T21:12:10.745Z,27.10
2022-11-28T21:14:38.478Z,29.20
2022-11-28T21:17:06.251Z,23.20
2022-11-28T21:19:34.062Z,24.90
2022-11-28T21:22:03.221Z,24.13
2022-11-28T21:24:31.068Z,22.17
2022-11-28T21:26:58.773Z,26.07
2022-11-28T21:29:26.869Z,25.37
2022-11-28T21:31:54.898Z,23.60
2022-11-28T21:34:22.861Z,23.83
2022-11-28T21:36:50.610Z,25.03
2022-11-28T21:39:24.009Z,24.40
2022-11-28T21:41:53.081Z,24.30
2022-11-28T21:44:21.162Z,24.17
2022-11-28T21:46:48.946Z,24.97
2022-11-28T21:49:17.128Z,25.93
2022-11-28T21:51:44.908Z,27.23
2022-11-28T21:54:13.713Z,26.90
2022-11-28T21:56:42.798Z,26.57
2022-11-28T21:59:10.561Z,25.40
2022-11-28T22:01:38.417Z,27.17
2022-11-28T22:04:06.292Z,26.90
2022-11-28T22:06:34.317Z,26.87
2022-11-28T22:09:09.115Z,26.27
2022-11-28T22:11:37.972Z,30.43
2022-11-28T22:14:07.104Z,28.80
2022-11-28T22:16:34.901Z,24.17
2022-11-28T22:19:02.666Z,24.43
2022-11-28T22:24:18.569Z,29.20
2022-11-28T22:26:46.336Z,26.47
2022-11-28T22:29:16.167Z,28.20
2022-11-28T22:31:44.043Z,26.80
2022-11-28T22:34:11.916Z,26.50
2022-11-28T22:36:39.712Z,26.70
2022-11-28T22:39:07.455Z,25.90
2022-11-28T22:41:35.259Z,25.43
2022-11-28T22:44:04.347Z,23.53
2022-11-28T22:46:33.721Z,29.23
2022-11-28T22:49:02.225Z,28.57
2022-11-28T22:51:31.175Z,29.63
2022-11-28T22:54:01.214Z,27.53
2022-11-28T22:56:30.035Z,33.80
2022-11-28T22:58:57.834Z,27.83
2022-11-28T23:01:27.262Z,27.47
2022-11-28T23:03:56.894Z,25.57
2022-11-28T23:06:26.712Z,26.30
2022-11-28T23:08:55.612Z,30.23
2022-11-28T23:11:25.599Z,30.93
2022-11-28T23:13:53.837Z,27.83
2022-11-28T23:16:24.597Z,26.30
2022-11-28T23:18:54.343Z,26.37
2022-11-28T23:21:25.154Z,26.10
2022-11-28T23:23:53.217Z,27.80
2022-11-28T23:26:24.933Z,31.37
2022-11-28T23:28:53.240Z,31.40
2022-11-28T23:31:23.031Z,37.67
2022-11-28T23:33:51.092Z,29.33
2022-11-28T23:36:20.628Z,29.43
2022-11-28T23:38:52.429Z,29.73
2022-11-28T23:41:20.422Z,29.37
2022-11-28T23:43:48.606Z,27.90
2022-11-28T23:46:17.482Z,29.27
2022-11-28T23:48:46.975Z,30.87
2022-11-28T23:51:20.037Z,34.13
2022-11-28T23:53:49.808Z,31.07
2022-11-28T23:56:18.877Z,28.13
2022-11-28T23:58:47.285Z,28.77
